Boston, MA (02196)

2:14 PM EST on February 06, 2016 (GMT -0500)
south end | | Change Station
CLOSE
Current Station
Personal Weather Station
Location: Boston, MA
Elevation: 46 ft
Nearby Weather Stations

Elev 46 ft 42.35 °N, 71.07 °W | Updated 3 seconds ago

Mostly Cloudy
Mostly Cloudy
36.9 °F
Feels Like 37 °F
N
0.0
Wind Variable Wind from ENE
Gusts 0.0 mph

Today
High -- | Low -- °F
--% Chance of Precip.
Yesterday
High -- | Low -- °F
Precip. -- in
Pressure 30.30 in
Visibility 10.0 miles
Clouds Few 3000 ft
Scattered Clouds 20000 ft
Mostly Cloudy 25000 ft
Windchill 37 °F
Dew Point 30 °F
Humidity 76%
Rainfall 0.00 in
Snow Depth Not available.
6:52 AM 5:04 PM
Waning Crescent, 4% visible
METAR KBOS 061854Z 21010KT 10SM FEW030 SCT200 BKN250 01/M04 A3030 RMK AO2 SLP258 T00111039
Pressure 30.30 in
Visibility 10.0 miles
Clouds Few 3000 ft
Scattered Clouds 20000 ft
Mostly Cloudy 25000 ft
Windchill 37 °F
Dew Point 30 °F
Humidity 76%
Rainfall 0.00 in
Snow Depth Not available.
6:52 AM 5:04 PM
Waning Crescent, 4% visible
METAR KBOS 061854Z 21010KT 10SM FEW030 SCT200 BKN250 01/M04 A3030 RMK AO2 SLP258 T00111039

10-Day Weather Forecast

Almanac

Astronomy

Feb. 06, 2016 Rise Set
Actual Time
Civil Twilight
Nautical Twilight
Astronomical Twilight
Moon
Length of Visible Light
Length of Day
Tomorrow will be .
, % of the Moon is Illuminated

Today's Extremes

State Highs State Lows

Community

WunderPhotos

Upload Photos

1,891,033 photos uploaded!

WunderBlog® & News

Nearby

Air Quality

  Air Quality AQ Index Pollutant
Not available.

Snow Depth

Station Depth Elevation

Earthquake Activity

City Distance Mag. Time & Date
Minimum magnitude displayed is 2.5.

Coastal Water Temperatures

Place Temperature

Stations

Nearby Weather Stations

Station Location Temp. Windchill Dew Point Humidity Wind Precip. Elev Updated Type
                   

Watches & Warnings

There are currently no watches in effect.